Latest METARs, TAFs and NOTAMs for RJGG


---------------------------------------------------------------------------
	(OBSERVATIONS)
RJGG 101500Z 34012KT 9999 FEW030 06/M00 Q1028 NOSIG=
RJGG 101430Z 35013KT 9999 FEW030 07/00 Q1028 NOSIG=
RJGG 101400Z 35011KT 9999 FEW030 06/M01 Q1029 NOSIG=
RJGG 101330Z 35014KT 9999 FEW030 07/M01 Q1029 NOSIG=
RJGG 101300Z 35015KT 9999 FEW030 08/01 Q1029 NOSIG=
---------------------------------------------------------------------------
	(TERMINAL AREA FORECAST)
RJGG 101109Z 1012/1118 34014KT 9999 FEW030 BECMG 1100/1103
    30004KT=
---------------------------------------------------------------------------
	(NOTAMS)


RJGG A5409/18 ILS-LOC,GP,DME FOR RWY 36 ON TEST DO NOT USE DUE
    TO MAINT RMK/FALSE INDICATIONS POSSIBLE. 1400/2100, 06 DEC
    14:00 2018 UNTIL 02 JAN 21:00 2019. CREATED: 29 NOV 03:17
    2018

RJGG A5410/18 ILS-LOC,GP,DME,IM FOR RWY 18-U/S DUE TO MAINT.
    1400/2100, 06 DEC 14:00 2018 UNTIL 02 JAN 21:00 2019. CREATED:
    29 NOV 03:17 2018

RJGG A5577/18 TRIGGER NOTAM-PERM AIRAC AIP AMDT NR20/2018 WEF
    30 JAN 2019 REVISION OF INSTRUMENT FLT PROC, ETC. 30 JAN
    15:00 2019 UNTIL 13 FEB 15:00 2019. CREATED: 06 DEC 07:43
    2018

RJGG A5580/18 RWY 18/36-CLSD DUE TO MAINT RMK/EXC ACFT WITH PRIOR
    PERMISSION AT LEAST 1HR BFR. 10 1920/2100 11 1745/1940 12
    1920/2040 13 1920/2100, 10 DEC 19:20 2018 UNTIL 13 DEC 21:00
    2018. CREATED: 06 DEC 09:18 2018

RJGG A5581/18 RWY 18/36-CLSD DUE TO CONST. 15 1600/1850 1920/2100
    16 1600/1945, 15 DEC 16:00 2018 UNTIL 16 DEC 19:45 2018.
    CREATED: 06 DEC 09:18 2018

RJGG A5590/18 TWY A A1 THRU A10, B B1 THRU B10, C C7 THRU C10-CLSD
    DUE TO MAINT RMK/EXC ACFT WITH PRIOR PERMISSION. 10 DEC 19:20
    2018 UNTIL 10 DEC 21:00 2018. CREATED: 06 DEC 13:17 2018

RJGG A5591/18 ACFT STAND TXL D D5 THRU D7 N-CLSD DUE TO MAINT
    RMK/EXC ACFT WITH PRIOR PERMISSION. 10 DEC 15:30 2018 UNTIL
    10 DEC 21:00 2018. CREATED: 06 DEC 13:17 2018

RJGG A5592/18 ACFT STAND TXL E E2 THRU E6-CLSD DUE TO MAINT RMK/EXC
    ACFT WITH PRIOR PERMISSION. 10 DEC 16:00 2018 UNTIL 10 DEC
    21:00 2018. CREATED: 06 DEC 13:17 2018

RJGG A5604/18 TWY A,A1 THRU A10,B,B1 THRU B10,C,C7 THRU C10-CLSD
    DUE TO MAINT RMK/EXC ACFT WITH PRIOR PERMISSION. 11 DEC 17:45
    2018 UNTIL 11 DEC 19:40 2018. CREATED: 07 DEC 12:41 2018

RJGG A5605/18 ACFT STAND TXL D,D5 THRU D7,N-CLSD DUE TO MAINT
    RMK/EXC ACFT WITH PRIOR PERMISSION. 11 DEC 15:30 2018 UNTIL
    11 DEC 21:00 2018. CREATED: 07 DEC 12:41 2018

RJGG A5606/18 ACFT STAND TXL E,E2 THRU E6-CLSD DUE TO MAINT RMK/EXC
    ACFT WITH PRIOR PERMISSION. 11 DEC 16:00 2018 UNTIL 11 DEC
    21:00 2018. CREATED: 07 DEC 12:42 2018

RJGG A5607/18 TWY A,A1 THRU A10,B,B1 THRU B10,C,C7 THRU C10-CLSD
    DUE TO MAINT RMK/EXC ACFT WITH PRIOR PERMISSION. 12 DEC 19:20
    2018 UNTIL 12 DEC 20:40 2018. CREATED: 08 DEC 10:14 2018

RJGG A5608/18 ACFT STAND TXL D,D5 THRU D7,N-CLSD DUE TO MAINT
    RMK/EXC ACFT WITH PRIOR PERMISSION. 12 DEC 15:30 2018 UNTIL
    12 DEC 21:00 2018. CREATED: 08 DEC 10:14 2018

RJGG A5609/18 ACFT STAND TXL E,E2 THRU E6-CLSD DUE TO MAINT RMK/EXC
    ACFT WITH PRIOR PERMISSION. 12 DEC 16:00 2018 UNTIL 12 DEC
    21:00 2018. CREATED: 08 DEC 10:14 2018

RJGG V0571/18 [US DOD PROCEDURAL NOTAM] INSTRUMENT APPROACH PROCEDURE
    NOT AUTHORIZED ILS Y OR LOC Y RWY 36. INSTRUMENT APPROACH
    PROCEDURE NOT AUTHORIZED ILS Y RWY 36 (CAT II). 02 OCT 18:29
    2018 UNTIL 31 JAN 00:01 2019. CREATED: 02 OCT 18:29 2018

---------------------------------------------------------------------------